Time;durP1;ratioP1;P1;durP2;ratioP2;P2;SDS_P1;SDS_P2;PMS_P1;PMS_P2;Temp;Humidity;BMP_temperature;BMP_pressure;BME280_temperature;BME280_humidity;BME280_pressure;Samples;Min_cycle;Max_cycle;Signal;HPM_P1;HPM_P2
2022/08/23 00:01:34;;;;;;;4.43;2.22;;;;;;;-145.69;92.93;71113.88;5072395;28;20206;-77
2022/08/23 00:04:04;;;;;;;3.83;2.50;;;;;;;-145.69;93.79;71127.81;5053495;28;20206;-77
2022/08/23 00:06:31;;;;;;;4.32;2.15;;;;;;;-145.69;93.17;71127.81;5056280;28;20231;-76
2022/08/23 00:08:58;;;;;;;4.13;2.00;;;;;;;-145.69;95.56;71135.75;5055931;28;20684;-76
2022/08/23 00:11:29;;;;;;;4.60;2.10;;;;;;;-145.69;97.90;71167.59;5056463;28;20199;-76
2022/08/23 00:13:56;;;;;;;2.75;1.92;;;;;;;-145.69;99.06;71177.53;5056195;28;20199;-75
2022/08/23 00:16:24;;;;;;;8.45;2.13;;;;;;;-145.69;100.00;71187.50;5055862;28;20199;-77
2022/08/23 00:18:50;;;;;;;6.53;2.45;;;;;;;-145.69;100.00;71201.41;5056565;28;20203;-77
2022/08/23 00:21:17;;;;;;;3.35;2.30;;;;;;;-145.69;100.00;71211.38;5056267;28;20218;-78
2022/08/23 00:23:43;;;;;;;4.65;2.40;;;;;;;-145.69;100.00;71211.38;5055864;28;20597;-77
2022/08/23 00:26:10;;;;;;;5.95;2.50;;;;;;;-145.69;100.00;71207.38;5055769;28;20227;-75
2022/08/23 00:28:36;;;;;;;8.98;2.30;;;;;;;-145.69;100.00;71201.41;5056111;28;20207;-77
2022/08/23 00:31:03;;;;;;;3.85;2.47;;;;;;;-145.69;100.00;71203.41;5056190;28;20203;-77
2022/08/23 00:33:32;;;;;;;7.90;2.70;;;;;;;-145.69;100.00;71211.38;5055482;28;20214;-76
2022/08/23 00:35:58;;;;;;;3.58;1.90;;;;;;;-145.69;100.00;71213.38;5056154;28;20214;-76
2022/08/23 00:38:25;;;;;;;6.47;2.38;;;;;;;-145.69;100.00;71215.34;5056139;28;20199;-77
2022/08/23 00:40:52;;;;;;;6.13;2.30;;;;;;;-145.69;100.00;71211.38;5071495;28;20194;-76
2022/08/23 00:49:08;;;;;;;5.22;2.25;;;;;;;-145.69;100.00;71203.41;5075626;28;20280;-75
2022/08/23 00:51:42;;;;;;;6.20;2.55;;;;;;;-145.69;100.00;71215.34;5059006;28;20200;-76
2022/08/23 00:54:09;;;;;;;5.72;2.70;;;;;;;-145.69;100.00;71221.31;5055680;28;20199;-78
2022/08/23 00:56:38;;;;;;;5.38;2.40;;;;;;;-145.69;100.00;71231.28;5055638;28;20257;-76
2022/08/23 00:59:05;;;;;;;5.63;2.00;;;;;;;-145.69;100.00;71235.25;5055664;28;20566;-77
2022/08/23 01:01:31;;;;;;;4.05;2.13;;;;;;;-145.69;100.00;71247.19;5054945;28;20206;-75
2022/08/23 01:03:59;;;;;;;6.85;2.22;;;;;;;-145.69;100.00;71247.19;5061637;28;20191;-76
2022/08/23 01:06:32;;;;;;;3.90;2.30;;;;;;;-145.69;100.00;71235.25;5075740;28;20226;-75
2022/08/23 01:09:03;;;;;;;4.85;2.50;;;;;;;-145.69;100.00;71231.28;5075256;28;20290;-76
2022/08/23 01:11:34;;;;;;;4.45;2.40;;;;;;;-145.69;99.32;71211.38;5074650;28;20209;-77
2022/08/23 01:14:05;;;;;;;8.25;2.50;;;;;;;-145.69;98.29;71203.41;5074979;28;20905;-76
2022/08/23 01:16:38;;;;;;;3.72;2.05;;;;;;;-145.69;98.78;71191.47;5074792;28;20207;-77
2022/08/23 01:19:12;;;;;;;4.30;2.15;;;;;;;-145.69;98.93;71205.41;5072770;28;20203;-77
2022/08/23 01:21:45;;;;;;;6.80;2.40;;;;;;;-145.69;99.51;71223.31;5075040;28;20199;-77
2022/08/23 01:24:14;;;;;;;4.43;2.38;;;;;;;-145.69;100.00;71251.16;5074926;28;20194;-76
2022/08/23 01:26:41;;;;;;;5.28;2.40;;;;;;;-145.69;100.00;71267.09;5074772;28;20264;-76
2022/08/23 01:29:07;;;;;;;5.45;2.28;;;;;;;-145.69;100.00;71267.09;5075028;28;20568;-77
2022/08/23 01:31:35;;;;;;;5.18;2.08;;;;;;;-145.69;100.00;71265.09;5074958;28;20194;-76
2022/08/23 01:34:07;;;;;;;3.75;2.15;;;;;;;-145.69;100.00;71263.09;5058350;28;20197;-77
2022/08/23 01:36:34;;;;;;;6.75;2.13;;;;;;;-145.69;100.00;71277.03;5075190;28;20202;-76
2022/08/23 01:39:01;;;;;;;6.95;2.45;;;;;;;-145.69;100.00;71275.03;5075176;28;20544;-76
2022/08/23 01:41:30;;;;;;;3.77;2.23;;;;;;;-145.69;100.00;71286.97;5074752;28;20202;-77
2022/08/23 01:43:56;;;;;;;6.95;2.17;;;;;;;-145.69;100.00;71292.94;5074786;28;20658;-76
2022/08/23 01:46:24;;;;;;;3.20;1.97;;;;;;;-145.69;100.00;71294.94;5074164;28;20233;-76
2022/08/23 01:48:54;;;;;;;3.43;2.30;;;;;;;-145.69;100.00;71292.94;5074078;28;20276;-77
2022/08/23 01:51:21;;;;;;;7.93;2.50;;;;;;;-145.69;100.00;71288.97;5074597;28;20202;-76
2022/08/23 01:53:49;;;;;;;7.32;2.17;;;;;;;-145.69;100.00;71296.94;5074360;28;20199;-76
2022/08/23 01:56:18;;;;;;;2.33;2.00;;;;;;;-145.69;100.00;71292.94;5074856;28;20230;-76
2022/08/23 01:58:46;;;;;;;7.77;2.60;;;;;;;-145.69;100.00;71273.06;5074338;28;20195;-76
2022/08/23 02:01:13;;;;;;;4.20;2.40;;;;;;;-145.69;100.00;71279.03;5074560;28;20199;-77
2022/08/23 02:03:39;;;;;;;7.70;2.17;;;;;;;-145.69;100.00;71279.03;5073876;28;20198;-77
2022/08/23 02:06:06;;;;;;;2.70;2.20;;;;;;;-145.69;100.00;71298.94;5074054;28;20199;-76
2022/08/23 02:11:20;;;;;;;4.67;2.70;;;;;;;-145.69;100.00;71316.84;5073361;28;20495;-78
2022/08/23 02:13:50;;;;;;;7.20;2.22;;;;;;;-145.69;100.00;71320.81;5073824;28;20228;-76
2022/08/23 02:16:22;;;;;;;7.50;2.20;;;;;;;-145.69;100.00;71314.84;5074223;28;20199;-76
2022/08/23 02:18:49;;;;;;;5.50;2.53;;;;;;;-145.69;100.00;71326.78;5074170;28;20198;-77
2022/08/23 02:21:16;;;;;;;3.65;2.35;;;;;;;-145.69;100.00;71338.72;5074225;28;20202;-76
2022/08/23 02:23:42;;;;;;;4.00;2.20;;;;;;;-145.69;100.00;71346.69;5073517;28;20282;-76
2022/08/23 02:26:09;;;;;;;5.50;2.45;;;;;;;-145.69;100.00;71348.66;5073265;28;20653;-77
2022/08/23 02:28:35;;;;;;;6.80;2.40;;;;;;;-145.69;100.00;71342.69;5073510;28;20213;-77
2022/08/23 02:31:04;;;;;;;5.83;2.50;;;;;;;-145.69;100.00;71342.69;5073849;28;20198;-76
2022/08/23 02:33:30;;;;;;;3.37;2.30;;;;;;;-145.69;100.00;71338.72;5073465;28;20286;-76
2022/08/23 02:35:57;;;;;;;3.57;2.40;;;;;;;-145.69;100.00;71352.66;5073372;28;20653;-76
2022/08/23 02:38:24;;;;;;;9.87;2.60;;;;;;;-145.69;100.00;71348.66;5073857;28;20198;-77
2022/08/23 02:40:51;;;;;;;3.87;2.30;;;;;;;-145.69;100.00;71334.75;5073462;28;20285;-76
2022/08/23 02:43:18;;;;;;;4.70;2.10;;;;;;;-145.69;100.00;71338.72;5073559;28;20234;-76
2022/08/23 02:45:45;;;;;;;4.60;2.43;;;;;;;-145.69;100.00;71354.63;5073188;28;20649;-77
2022/08/23 02:48:13;;;;;;;3.70;2.10;;;;;;;-145.69;100.00;71374.53;5073103;28;20336;-76
2022/08/23 02:50:39;;;;;;;5.67;2.40;;;;;;;-145.69;100.00;71386.47;5072900;28;20214;-76
2022/08/23 02:53:06;;;;;;;5.47;2.60;;;;;;;-145.69;100.00;71396.44;5073326;28;20553;-77
2022/08/23 02:55:33;;;;;;;4.80;2.73;;;;;;;-145.69;100.00;71402.41;5057631;28;20719;-77
2022/08/23 02:57:59;;;;;;;5.40;2.60;;;;;;;-145.69;100.00;71398.41;5053064;28;20203;-76
2022/08/23 03:00:26;;;;;;;3.30;2.20;;;;;;;-145.69;100.00;71400.41;5052987;28;20207;-76
2022/08/23 03:02:53;;;;;;;2.80;2.20;;;;;;;-145.69;100.00;71390.47;5052749;28;20700;-76
2022/08/23 03:05:21;;;;;;;4.90;2.00;;;;;;;-145.69;100.00;71398.41;5053123;28;20654;-77
2022/08/23 03:07:47;;;;;;;3.80;2.43;;;;;;;-145.69;100.00;71400.41;5052817;28;20701;-75
2022/08/23 03:10:15;;;;;;;4.23;2.60;;;;;;;-145.69;100.00;71408.38;5053248;28;20199;-77
2022/08/23 03:12:42;;;;;;;5.70;2.60;;;;;;;-145.69;100.00;71422.28;5067463;28;20203;-77
2022/08/23 03:15:11;;;;;;;3.97;2.17;;;;;;;-145.69;100.00;71430.25;5072972;28;20194;-75
2022/08/23 03:17:38;;;;;;;4.07;2.50;;;;;;;-145.69;100.00;71434.22;5073273;28;20210;-76
2022/08/23 03:20:06;;;;;;;6.97;2.63;;;;;;;-145.69;100.00;71446.16;5073203;28;20199;-76
2022/08/23 03:22:34;;;;;;;6.83;3.20;;;;;;;-145.69;100.00;71438.22;5073046;28;20286;-76
2022/08/23 03:25:01;;;;;;;4.77;2.27;;;;;;;-145.69;100.00;71414.34;5073024;28;20202;-76
2022/08/23 03:27:31;;;;;;;3.07;2.40;;;;;;;-145.69;100.00;71386.47;5072591;28;20766;-75
2022/08/23 03:29:58;;;;;;;9.10;2.10;;;;;;;-145.69;100.00;71372.53;5072739;28;20557;-76
2022/08/23 03:32:25;;;;;;;3.47;2.07;;;;;;;-145.69;100.00;71374.53;5073076;28;20194;-75
2022/08/23 03:34:51;;;;;;;5.37;2.37;;;;;;;-145.69;100.00;71390.47;5072679;28;20222;-76
2022/08/23 03:37:18;;;;;;;6.63;2.20;;;;;;;-145.69;100.00;71386.47;5072587;28;20205;-75
2022/08/23 03:39:46;;;;;;;3.60;2.00;;;;;;;-145.69;100.00;71374.53;5072861;28;20332;-76
2022/08/23 03:42:12;;;;;;;4.57;2.23;;;;;;;-145.69;100.00;71392.44;5072296;28;20199;-76
2022/08/23 03:44:38;;;;;;;5.07;2.10;;;;;;;-145.69;100.00;71412.34;5072338;28;20645;-77
2022/08/23 03:47:05;;;;;;;3.57;2.33;;;;;;;-145.69;100.00;71430.25;5072211;28;20226;-76
2022/08/23 03:49:32;;;;;;;5.30;2.60;;;;;;;-145.69;100.00;71428.25;5072623;28;20289;-75
2022/08/23 03:51:59;;;;;;;5.27;2.33;;;;;;;-145.69;100.00;71438.22;5072602;28;20195;-77
2022/08/23 03:54:26;;;;;;;4.97;2.40;;;;;;;-145.69;100.00;71438.22;5072708;28;20203;-78
2022/08/23 03:56:55;;;;;;;6.03;2.80;;;;;;;-145.69;100.00;71436.22;5072565;28;20203;-77
2022/08/23 03:59:22;;;;;;;7.73;2.43;;;;;;;-145.69;100.00;71414.34;5072409;28;20608;-77
2022/08/23 04:01:49;;;;;;;5.37;2.43;;;;;;;-145.69;100.00;71398.41;5072658;28;20534;-76
2022/08/23 04:04:16;;;;;;;5.27;2.40;;;;;;;-145.69;100.00;71390.47;5072582;28;20683;-77
2022/08/23 04:06:43;;;;;;;5.10;2.07;;;;;;;-145.69;100.00;71400.41;5072529;28;20207;-76
2022/08/23 04:09:10;;;;;;;5.83;2.50;;;;;;;-145.69;100.00;71408.38;5072517;28;20199;-76
2022/08/23 04:11:37;;;;;;;6.27;2.47;;;;;;;-145.69;100.00;71420.31;5072266;28;20736;-76
2022/08/23 04:14:08;;;;;;;5.10;2.30;;;;;;;-145.69;100.00;71418.31;5072473;28;20201;-76
2022/08/23 04:16:36;;;;;;;3.20;2.10;;;;;;;-145.69;100.00;71398.41;5072614;28;20207;-77
2022/08/23 04:19:03;;;;;;;5.07;2.00;;;;;;;-145.69;100.00;71398.41;5072463;28;20661;-77
2022/08/23 04:21:30;;;;;;;4.57;2.27;;;;;;;-145.69;100.00;71406.38;5072193;28;20195;-76
2022/08/23 04:23:57;;;;;;;6.57;2.13;;;;;;;-145.69;100.00;71416.31;5072280;28;20199;-76
2022/08/23 04:26:26;;;;;;;4.00;2.10;;;;;;;-145.69;100.00;71408.38;5072592;28;20202;-76
2022/08/23 04:28:53;;;;;;;6.47;2.27;;;;;;;-145.69;100.00;71426.28;5072403;28;20231;-75
2022/08/23 04:31:21;;;;;;;4.33;1.93;;;;;;;-145.69;100.00;71434.22;5072268;28;20215;-76
2022/08/23 04:33:49;;;;;;;7.07;2.13;;;;;;;-145.69;100.00;71426.28;5072300;28;20205;-76
2022/08/23 04:36:16;;;;;;;4.73;2.00;;;;;;;-145.69;100.00;71428.25;5071852;28;20668;-76
2022/08/23 04:38:42;;;;;;;5.00;2.30;;;;;;;-145.69;100.00;71428.25;5072731;28;20320;-75
2022/08/23 04:43:55;;;;;;;8.33;2.40;;;;;;;-145.69;100.00;71404.38;5072281;28;20202;-76
2022/08/23 04:46:23;;;;;;;4.50;2.20;;;;;;;-145.69;100.00;71408.38;5072191;28;20277;-75
2022/08/23 04:48:49;;;;;;;3.57;2.13;;;;;;;-145.69;100.00;71406.38;5071842;28;20244;-76
2022/08/23 04:51:16;;;;;;;6.65;2.03;;;;;;;-145.69;98.81;71394.44;5074569;28;20762;-76
2022/08/23 04:53:43;;;;;;;3.20;1.80;;;;;;;-145.69;98.33;71386.47;5063295;28;20199;-76
2022/08/23 04:56:10;;;;;;;2.73;1.93;;;;;;;-145.69;99.56;71390.47;5055641;28;20218;-76
2022/08/23 04:58:38;;;;;;;2.90;1.67;;;;;;;-145.69;98.96;71398.41;5055649;28;20230;-75
2022/08/23 05:01:07;;;;;;;6.27;2.77;;;;;;;-145.69;98.43;71400.41;5055560;28;20238;-76
2022/08/23 05:03:35;;;;;;;5.00;1.97;;;;;;;-145.69;98.94;71394.44;5055320;28;20199;-75
2022/08/23 05:06:03;;;;;;;6.40;1.80;;;;;;;-145.69;100.00;71388.47;5055485;28;20558;-75
2022/08/23 05:08:31;;;;;;;6.27;2.33;;;;;;;-145.69;97.04;71382.50;5055231;28;20310;-77
2022/08/23 05:11:00;;;;;;;3.73;1.97;;;;;;;-145.69;96.51;71370.56;5055510;28;20203;-76
2022/08/23 05:13:26;;;;;;;4.13;1.70;;;;;;;-145.69;94.21;71354.63;5058640;28;20220;-75
2022/08/23 05:15:53;;;;;;;3.90;1.80;;;;;;;-145.69;92.03;71338.72;5075031;28;20202;-76
2022/08/23 05:18:19;;;;;;;4.07;1.65;;;;;;;-145.69;90.61;71320.81;5074926;28;20206;-76
2022/08/23 05:20:51;;;;;;;4.95;1.80;;;;;;;-145.69;90.98;71322.81;5075411;28;20290;-76
2022/08/23 05:23:17;;;;;;;4.05;1.67;;;;;;;-145.69;91.35;71322.81;5075164;28;20202;-76
2022/08/23 05:25:50;;;;;;;3.30;1.85;;;;;;;-145.69;91.94;71318.81;5074915;28;20202;-76
2022/08/23 05:28:28;;;;;;;4.88;2.00;;;;;;;-145.69;92.46;71320.81;5074991;28;20289;-76
2022/08/23 05:30:57;;;;;;;3.47;1.95;;;;;;;-145.69;90.51;71310.84;5075005;28;20277;-77
2022/08/23 05:33:24;;;;;;;4.70;1.77;;;;;;;-145.69;89.99;71288.97;5074546;28;20205;-76
2022/08/23 05:35:53;;;;;;;4.77;1.70;;;;;;;-145.69;89.02;71279.03;5075443;28;20199;-76
2022/08/23 05:38:20;;;;;;;3.88;1.70;;;;;;;-145.69;89.46;71281.00;5074927;28;20198;-76
2022/08/23 05:40:48;;;;;;;3.83;2.03;;;;;;;-145.69;89.23;71273.06;5074973;28;20577;-76
2022/08/23 05:43:16;;;;;;;6.22;1.40;;;;;;;-145.69;91.35;71283.00;5074770;28;20248;-75
2022/08/23 05:45:42;;;;;;;3.20;1.63;;;;;;;-145.69;90.47;71279.03;5074592;28;20289;-75
2022/08/23 05:48:09;;;;;;;4.30;1.67;;;;;;;-145.69;89.99;71269.06;5074110;28;20330;-76
2022/08/23 05:50:37;;;;;;;3.40;1.73;;;;;;;-145.69;90.56;71267.09;5074452;28;20277;-75
2022/08/23 05:53:08;;;;;;;4.45;1.70;;;;;;;-145.69;88.36;71241.22;5074506;28;20206;-75
2022/08/23 05:55:35;;;;;;;3.25;1.88;;;;;;;-145.69;87.92;71227.28;5074408;28;20293;-76
2022/08/23 05:58:04;;;;;;;3.45;1.67;;;;;;;-145.69;86.46;71203.41;5074597;28;20206;-75
2022/08/23 06:00:30;;;;;;;3.00;1.70;;;;;;;-145.69;86.91;71203.41;5074281;28;20225;-77
2022/08/23 06:02:57;;;;;;;4.88;1.83;;;;;;;-145.69;87.56;71193.47;5073483;28;20199;-76
2022/08/23 06:05:23;;;;;;;3.28;1.80;;;;;;;-145.69;87.84;71187.50;5074435;28;20203;-76
2022/08/23 06:07:50;;;;;;;3.97;2.15;;;;;;;-145.69;87.41;71173.56;5074298;28;20585;-76
2022/08/23 06:10:20;;;;;;;2.90;1.88;;;;;;;-145.69;87.81;71161.63;5073636;28;20343;-76
2022/08/23 06:12:46;;;;;;;2.33;1.70;;;;;;;-145.69;89.04;71151.69;5074195;28;20199;-76
2022/08/23 06:15:13;;;;;;;2.58;1.70;;;;;;;-145.69;90.30;71151.69;5074241;28;20213;-76
2022/08/23 06:17:40;;;;;;;4.82;1.80;;;;;;;-145.69;90.64;71157.66;5074450;28;20206;-75
2022/08/23 06:20:08;;;;;;;3.63;1.45;;;;;;;-145.69;91.93;71151.69;5073519;28;20232;-76
2022/08/23 06:22:34;;;;;;;6.38;2.25;;;;;;;-145.69;93.68;71143.72;5074124;28;20206;-75
2022/08/23 06:25:02;;;;;;;4.22;1.33;;;;;;;-145.69;92.86;71147.69;5074043;28;20209;-76
2022/08/23 06:27:30;;;;;;;2.75;1.70;;;;;;;-145.69;94.38;71151.69;5073922;28;20195;-75
2022/08/23 06:29:59;;;;;;;3.90;1.60;;;;;;;-145.69;95.03;71143.72;5073635;28;20207;-77
2022/08/23 06:32:25;;;;;;;3.45;1.98;;;;;;;-145.69;97.22;71131.78;5073536;28;20203;-77
2022/08/23 06:34:52;;;;;;;5.38;1.65;;;;;;;-145.69;96.82;71113.88;5074088;28;20209;-77
2022/08/23 06:37:21;;;;;;;3.42;1.90;;;;;;;-145.69;97.03;71093.97;5072938;28;20207;-77
2022/08/23 06:39:48;;;;;;;2.75;1.67;;;;;;;-145.69;96.91;71072.09;5073854;28;20238;-75
2022/08/23 06:42:16;;;;;;;2.83;1.55;;;;;;;-145.69;95.65;71050.22;5073550;28;20203;-76
2022/08/23 06:44:44;;;;;;;2.03;1.65;;;;;;;-145.69;94.06;71030.31;5073093;28;20284;-75
2022/08/23 06:47:10;;;;;;;7.28;1.55;;;;;;;-145.69;92.27;71004.44;5073374;28;20653;-76
2022/08/23 06:49:37;;;;;;;2.40;1.70;;;;;;;-145.69;92.55;70980.56;5058286;28;20705;-76
2022/08/23 06:52:04;;;;;;;2.80;1.63;;;;;;;-145.69;91.05;70960.66;5053467;28;20199;-77
2022/08/23 06:54:33;;;;;;;4.95;1.75;;;;;;;-145.69;89.63;70930.81;5064249;28;20845;-76
2022/08/23 06:57:01;;;;;;;6.80;1.52;;;;;;;-145.69;89.99;70908.94;5073505;28;20661;-76
2022/08/23 06:59:30;;;;;;;4.18;1.83;;;;;;;-145.69;88.82;70885.06;5072935;28;20538;-75
2022/08/23 07:02:00;;;;;;;2.47;1.63;;;;;;;-145.69;91.33;70861.19;5072810;28;20209;-75
2022/08/23 07:04:29;;;;;;;3.65;1.77;;;;;;;-145.69;89.71;70835.31;5072938;28;20289;-76
2022/08/23 07:06:56;;;;;;;3.75;1.35;;;;;;;-145.69;85.56;70811.44;5073394;28;20597;-76
2022/08/23 07:09:23;;;;;;;2.25;1.42;;;;;;;-145.69;81.36;70797.53;5073091;28;20236;-77
2022/08/23 07:11:50;;;;;;;3.15;1.40;;;;;;;-145.69;81.29;70789.56;5073114;28;20558;-76
2022/08/23 07:14:19;;;;;;;4.93;1.40;;;;;;;-145.69;80.20;70767.69;5072602;28;20207;-77
2022/08/23 07:16:48;;;;;;;2.95;1.67;;;;;;;-145.69;80.13;70745.78;5072692;28;20202;-77
2022/08/23 07:19:18;;;;;;;3.13;1.42;;;;;;;-145.69;81.14;70723.91;5073054;28;20249;-76
2022/08/23 07:21:45;;;;;;;3.60;1.60;;;;;;;-145.69;78.17;70709.97;5072431;28;20209;-75
2022/08/23 07:24:12;;;;;;;2.60;1.35;;;;;;;-145.69;76.51;70694.06;5072938;28;20289;-76
2022/08/23 07:26:41;;;;;;;3.63;1.60;;;;;;;-145.69;71.01;70678.16;5072964;28;20658;-75
2022/08/23 07:29:12;;;;;;;2.58;1.33;;;;;;;-145.69;69.44;70670.19;5072723;28;20321;-75
2022/08/23 07:31:43;;;;;;;3.17;1.52;;;;;;;-145.69;64.31;70648.31;5072662;28;20623;-76
2022/08/23 07:34:12;;;;;;;2.25;1.40;;;;;;;-145.69;63.84;70630.41;5072999;28;20596;-76
2022/08/23 07:36:42;;;;;;;5.32;1.30;;;;;;;-145.69;62.96;70608.53;5073061;28;20562;-76
2022/08/23 07:39:10;;;;;;;3.45;1.55;;;;;;;-145.69;62.41;70592.59;5071931;28;20198;-76
2022/08/23 07:41:37;;;;;;;4.10;1.67;;;;;;;-145.69;59.94;70578.69;5072747;28;20221;-76
2022/08/23 07:44:07;;;;;;;3.78;1.60;;;;;;;-145.69;61.99;70554.81;5072897;28;20252;-76
2022/08/23 07:46:35;;;;;;;3.60;1.58;;;;;;;-145.69;55.24;70542.88;5072643;28;20198;-76
2022/08/23 07:49:03;;;;;;;3.25;1.55;;;;;;;-145.69;57.33;70534.91;5072111;28;20715;-76
2022/08/23 07:51:31;;;;;;;2.63;1.50;;;;;;;-145.69;54.66;70528.94;5072864;28;20202;-76
2022/08/23 07:54:01;;;;;;;4.68;1.77;;;;;;;-145.69;60.42;70515.00;5072771;28;20297;-76
2022/08/23 07:56:27;;;;;;;7.25;1.52;;;;;;;-145.69;58.29;70515.00;5072481;28;20199;-76
2022/08/23 07:58:54;;;;;;;3.08;1.35;;;;;;;-145.69;58.86;70503.06;5072854;28;20207;-75
2022/08/23 08:01:23;;;;;;;2.95;1.50;;;;;;;-145.69;56.33;70515.00;5072259;28;20195;-76
2022/08/23 08:03:52;;;;;;;3.28;1.60;;;;;;;-145.69;62.68;70487.16;5072809;28;20195;-76
2022/08/23 08:06:21;;;;;;;5.32;1.65;;;;;;;-145.69;57.19;70483.19;5071270;28;20438;-76
2022/08/23 08:08:48;;;;;;;3.60;1.90;;;;;;;-145.69;57.18;70475.22;5072278;28;20236;-76
2022/08/23 08:11:19;;;;;;;5.85;1.98;;;;;;;-145.69;64.01;70451.34;5063795;28;20206;-77
2022/08/23 08:13:48;;;;;;;4.95;1.50;;;;;;;-145.69;58.19;70453.34;5059575;28;20562;-75
2022/08/23 08:16:24;;;;;;;3.10;1.35;;;;;;;-145.69;60.03;70423.50;5070510;28;20286;-75
2022/08/23 08:18:51;;;;;;;4.30;1.50;;;;;;;-145.69;65.43;70417.53;5072679;28;20657;-76
2022/08/23 08:21:18;;;;;;;3.30;1.50;;;;;;;-145.69;57.04;70419.53;5072267;28;20206;-76
2022/08/23 08:23:47;;;;;;;4.30;1.60;;;;;;;-145.69;64.04;70407.59;5072706;28;20203;-76
2022/08/23 08:26:16;;;;;;;2.80;1.60;;;;;;;-145.69;65.68;70429.47;5075190;28;20274;-75
2022/08/23 08:28:44;;;;;;;3.92;1.75;;;;;;;-145.69;62.09;70419.53;5076151;28;20237;-76
2022/08/23 08:31:12;;;;;;;2.35;1.40;;;;;;;-145.69;59.88;70417.53;5076041;28;20298;-76
2022/08/23 08:33:38;;;;;;;4.70;1.60;;;;;;;-145.69;48.08;70407.59;5076052;28;20285;-75
2022/08/23 08:36:06;;;;;;;3.22;1.75;;;;;;;-145.69;64.88;70395.66;5076036;28;20206;-76
2022/08/23 08:38:33;;;;;;;3.38;1.80;;;;;;;-145.69;62.54;70383.72;5075185;28;20207;-76
2022/08/23 08:41:07;;;;;;;3.75;1.75;;;;;;;-145.69;57.87;70371.78;5075743;28;20672;-76
2022/08/23 08:43:47;;;;;;;3.33;1.20;;;;;;;-145.69;51.02;70361.84;5076027;28;20202;-75
2022/08/23 08:46:22;;;;;;;2.85;1.50;;;;;;;-145.69;48.89;70361.84;5075903;28;20213;-76
2022/08/23 08:48:54;;;;;;;4.45;1.70;;;;;;;-145.69;49.38;70367.81;5075628;28;20230;-75
2022/08/23 08:51:37;;;;;;;3.60;1.60;;;;;;;-145.69;52.00;70351.88;5075984;28;20260;-76
2022/08/23 08:54:08;;;;;;;4.40;1.30;;;;;;;-145.69;49.29;70343.94;5075793;28;20281;-75
2022/08/23 08:56:38;;;;;;;3.50;1.33;;;;;;;-145.69;46.71;70333.97;5063211;28;20210;-76
2022/08/23 08:59:09;;;;;;;2.63;1.30;;;;;;;-145.69;40.12;70341.94;5072515;28;20206;-76
2022/08/23 09:01:38;;;;;;;4.10;1.30;;;;;;;-145.69;39.85;70324.03;5075726;28;20238;-75
2022/08/23 09:04:06;;;;;;;2.90;1.30;;;;;;;-145.69;43.06;70316.06;5075626;28;20233;-76
2022/08/23 09:06:42;;;;;;;4.63;1.17;;;;;;;-145.69;44.11;70308.13;5075639;28;20566;-75
2022/08/23 09:09:20;;;;;;;5.03;1.25;;;;;;;-145.69;41.43;70316.06;5075281;28;20233;-77
2022/08/23 09:11:55;;;;;;;3.17;1.30;;;;;;;-145.69;40.28;70330.00;5075633;28;20199;-76
2022/08/23 09:14:38;;;;;;;4.72;1.33;;;;;;;-145.69;40.88;70326.03;5075538;28;20194;-76
2022/08/23 09:17:09;;;;;;;7.10;1.80;;;;;;;-145.69;40.71;70308.13;5075382;28;20199;-76
2022/08/23 09:19:39;;;;;;;3.28;1.27;;;;;;;-145.69;39.39;70304.13;5074884;28;20202;-77
2022/08/23 09:22:12;;;;;;;3.90;1.52;;;;;;;-145.69;39.65;70332.00;5075346;28;20187;-76
2022/08/23 09:24:38;;;;;;;5.05;1.40;;;;;;;-145.69;41.93;70337.97;5075326;28;20214;-75
2022/08/23 09:27:06;;;;;;;3.45;1.17;;;;;;;-145.69;41.03;70333.97;5075205;28;20209;-76
2022/08/23 09:29:36;;;;;;;6.30;1.40;;;;;;;-145.69;40.93;70316.06;5075115;28;20226;-76
2022/08/23 09:32:05;;;;;;;3.72;1.30;;;;;;;-145.69;41.21;70310.09;5075015;28;20199;-76
2022/08/23 09:34:41;;;;;;;3.55;1.60;;;;;;;-145.69;42.05;70296.19;5074999;28;20621;-76
2022/08/23 09:37:14;;;;;;;5.10;1.30;;;;;;;-145.69;43.45;70288.22;5074509;28;20194;-76
2022/08/23 09:39:42;;;;;;;5.38;1.20;;;;;;;-145.69;40.92;70300.16;5075287;28;20205;-76
2022/08/23 09:42:29;;;;;;;1.48;0.95;;;;;;;-145.69;42.80;70304.13;5074931;28;20301;-76
2022/08/23 09:44:57;;;;;;;2.75;1.30;;;;;;;-145.69;42.96;70286.25;5074811;28;20217;-75
2022/08/23 09:47:33;;;;;;;4.43;1.20;;;;;;;-145.69;40.18;70304.13;5074732;28;20281;-76
2022/08/23 09:50:09;;;;;;;4.22;1.20;;;;;;;-145.69;43.69;70292.19;5074451;28;20260;-75
2022/08/23 09:52:38;;;;;;;4.75;1.58;;;;;;;-145.69;42.15;70274.31;5075199;28;20659;-74
2022/08/23 09:55:10;;;;;;;2.53;1.30;;;;;;;-145.69;46.04;70276.28;5074590;28;20199;-75
2022/08/23 09:57:38;;;;;;;3.25;1.25;;;;;;;-145.69;39.75;70276.28;5074372;28;20195;-75
2022/08/23 10:00:24;;;;;;;3.42;1.33;;;;;;;-145.69;44.31;70266.34;5074477;28;20198;-74
2022/08/23 10:02:56;;;;;;;4.18;1.20;;;;;;;-145.69;40.20;70290.22;5074239;28;20264;-75
2022/08/23 10:05:31;;;;;;;4.63;1.60;;;;;;;-145.69;43.74;70258.38;5074481;28;20233;-76
2022/08/23 10:07:59;;;;;;;3.72;1.40;;;;;;;-145.69;42.08;70264.34;5074467;28;20201;-74
2022/08/23 10:10:33;;;;;;;3.75;1.58;;;;;;;-145.69;42.03;70244.47;5074218;28;20712;-77
2022/08/23 10:13:00;;;;;;;3.00;0.95;;;;;;;-145.69;43.31;70220.59;5074350;28;20198;-77
2022/08/23 10:15:40;;;;;;;2.85;1.23;;;;;;;-145.69;40.57;70202.69;5074221;28;20238;-76
2022/08/23 10:18:17;;;;;;;3.45;1.55;;;;;;;-145.69;40.98;70190.75;5074138;28;20211;-76
2022/08/23 10:20:51;;;;;;;3.80;1.23;;;;;;;-145.69;40.95;70192.75;5074036;28;20198;-76
2022/08/23 10:23:32;;;;;;;2.92;1.33;;;;;;;-145.69;39.27;70198.72;5074254;28;20202;-76
2022/08/23 10:25:59;;;;;;;3.70;1.27;;;;;;;-145.69;38.05;70208.66;5073986;28;20210;-76
2022/08/23 10:31:36;;;;;;;4.43;1.50;;;;;;;-145.69;39.89;70164.88;5074015;28;20205;-76
2022/08/23 10:34:24;;;;;;;3.95;1.23;;;;;;;-145.69;39.93;70164.88;5073716;28;20978;-76
2022/08/23 10:37:05;;;;;;;2.78;1.40;;;;;;;-145.69;39.22;70184.78;5073736;28;20230;-76
2022/08/23 10:39:32;;;;;;;4.65;1.50;;;;;;;-145.69;41.40;70166.88;5073914;28;20202;-76
2022/08/23 10:42:11;;;;;;;6.63;1.60;;;;;;;-145.69;38.99;70164.88;5073480;28;20195;-77
2022/08/23 10:44:43;;;;;;;2.78;1.23;;;;;;;-145.69;39.24;70148.97;5073684;28;20206;-76
2022/08/23 10:47:26;;;;;;;2.45;1.58;;;;;;;-145.69;38.51;70115.16;5073157;28;20596;-76
2022/08/23 10:49:54;;;;;;;1.70;1.20;;;;;;;-145.69;39.68;70119.13;5071548;28;20277;-76
2022/08/23 10:52:37;;;;;;;2.42;1.30;;;;;;;-145.69;41.34;70099.25;5053385;28;20203;-75
2022/08/23 10:55:33;;;;;;;2.40;1.35;;;;;;;-145.69;40.04;70109.19;5053615;28;20290;-76
2022/08/23 10:58:01;;;;;;;4.00;1.40;;;;;;;-145.69;41.04;70105.22;5066054;28;20206;-77
2022/08/23 11:00:29;;;;;;;2.85;1.10;;;;;;;-145.69;37.92;70117.16;5072827;28;20650;-76
2022/08/23 11:03:08;;;;;;;1.88;1.40;;;;;;;-145.69;41.37;70113.16;5073090;28;20224;-77
2022/08/23 11:05:39;;;;;;;6.22;1.35;;;;;;;-145.69;39.46;70145.00;5072972;28;20218;-76
2022/08/23 11:08:08;;;;;;;6.45;1.20;;;;;;;-145.69;40.54;70109.19;5073050;28;20735;-75
2022/08/23 11:10:47;;;;;;;3.20;1.30;;;;;;;-145.69;41.04;70087.31;5073349;28;20227;-75
2022/08/23 11:13:23;;;;;;;4.07;1.45;;;;;;;-145.69;42.37;70077.38;5073327;28;20199;-75
2022/08/23 11:16:05;;;;;;;7.55;1.50;;;;;;;-145.69;40.74;70117.16;5073092;28;20569;-75
2022/08/23 11:18:40;;;;;;;4.55;1.40;;;;;;;-145.69;37.37;70107.19;5072721;28;20285;-76
2022/08/23 11:21:12;;;;;;;3.97;1.30;;;;;;;-145.69;38.91;70107.19;5073026;28;20207;-75
2022/08/23 11:23:54;;;;;;;2.25;1.60;;;;;;;-145.69;41.92;70101.25;5072697;28;20602;-75
2022/08/23 11:26:54;;;;;;;5.00;1.45;;;;;;;-145.69;38.68;70061.44;5073165;28;20209;-76
2022/08/23 11:29:30;;;;;;;3.03;1.20;;;;;;;-145.69;39.60;70057.47;5071743;28;20230;-76
2022/08/23 11:32:13;;;;;;;7.68;1.95;;;;;;;-145.69;39.52;70023.66;5073002;28;20564;-75
2022/08/23 11:34:48;;;;;;;4.28;1.27;;;;;;;-145.69;41.91;69997.78;5073025;28;20201;-75
2022/08/23 11:37:49;;;;;;;3.70;1.50;;;;;;;-145.69;36.73;70025.66;5072882;28;20285;-75
2022/08/23 11:40:37;;;;;;;1.77;1.38;;;;;;;-145.69;39.29;70083.34;5072570;28;20248;-75